Time;durP1;ratioP1;P1;durP2;ratioP2;P2;SDS_P1;SDS_P2;PMS_P1;PMS_P2;Temp;Humidity;BMP_temperature;BMP_pressure;BME280_temperature;BME280_humidity;BME280_pressure;Samples;Min_cycle;Max_cycle;Signal;HPM_P1;HPM_P2
2021/12/19 00:09:24;;;;;;;84.28;24.77;;;;;;;5.40;100.00;103673.38;4994249;28;20033;-49
2021/12/19 00:11:50;;;;;;;77.55;21.70;;;;;;;5.43;100.00;103668.38;4995381;28;20026;-47
2021/12/19 00:14:15;;;;;;;68.93;20.60;;;;;;;5.49;100.00;103669.63;4995301;28;20169;-47
2021/12/19 00:16:41;;;;;;;72.05;19.27;;;;;;;5.40;100.00;103663.03;4995468;28;20058;-48
2021/12/19 00:19:06;;;;;;;76.63;18.60;;;;;;;5.38;100.00;103670.69;4996719;28;20077;-47
2021/12/19 00:21:32;;;;;;;70.20;20.23;;;;;;;5.37;100.00;103668.03;4995743;28;20030;-47
2021/12/19 00:23:58;;;;;;;63.95;19.25;;;;;;;5.40;100.00;103666.50;4995618;28;20014;-47
2021/12/19 00:26:23;;;;;;;63.20;19.70;;;;;;;5.40;100.00;103663.91;4995327;28;20489;-48
2021/12/19 00:28:50;;;;;;;53.63;16.77;;;;;;;5.37;100.00;103663.75;4995316;28;20105;-49
2021/12/19 00:31:16;;;;;;;58.20;17.52;;;;;;;5.44;100.00;103665.88;4995333;28;20022;-47
2021/12/19 00:33:42;;;;;;;50.83;15.80;;;;;;;5.40;100.00;103657.84;4994644;28;20081;-47
2021/12/19 00:36:08;;;;;;;46.58;15.40;;;;;;;5.31;100.00;103658.19;4995212;28;20030;-47
2021/12/19 00:38:34;;;;;;;34.42;13.27;;;;;;;5.35;100.00;103654.97;4994933;28;20026;-50
2021/12/19 00:41:00;;;;;;;34.63;13.18;;;;;;;5.35;100.00;103654.97;5010188;28;20073;-47
2021/12/19 00:43:35;;;;;;;27.08;10.50;;;;;;;5.30;100.00;103639.94;4995034;28;20030;-47
2021/12/19 00:46:09;;;;;;;21.63;9.25;;;;;;;5.30;100.00;103640.84;4995064;28;20026;-47
2021/12/19 00:48:41;;;;;;;32.72;12.65;;;;;;;5.31;100.00;103637.47;4994805;28;20113;-47
2021/12/19 00:51:08;;;;;;;29.63;12.57;;;;;;;5.34;100.00;103642.81;4994593;28;20072;-47
2021/12/19 00:53:34;;;;;;;31.77;12.68;;;;;;;5.30;100.00;103640.84;4994734;28;20104;-49
2021/12/19 00:56:01;;;;;;;41.17;12.15;;;;;;;5.30;100.00;103646.03;4994802;28;20030;-47
2021/12/19 00:58:26;;;;;;;43.65;14.05;;;;;;;5.26;100.00;103638.88;4994773;28;20087;-46
2021/12/19 01:00:51;;;;;;;43.03;14.98;;;;;;;5.31;100.00;103640.03;4994789;28;20068;-50
2021/12/19 01:03:17;;;;;;;49.42;15.57;;;;;;;5.37;100.00;103645.59;4994675;28;20022;-47
2021/12/19 01:05:43;;;;;;;51.72;16.40;;;;;;;5.36;100.00;103646.41;4993433;28;20022;-47
2021/12/19 01:08:11;;;;;;;52.10;16.58;;;;;;;5.35;100.00;103644.59;4993337;28;20050;-47
2021/12/19 01:10:38;;;;;;;57.78;18.77;;;;;;;5.34;100.00;103637.63;5009787;28;20034;-47
2021/12/19 01:13:03;;;;;;;62.65;17.67;;;;;;;5.27;100.00;103643.28;4994533;28;20442;-46
2021/12/19 01:15:29;;;;;;;38.63;13.57;;;;;;;5.31;100.00;103637.47;4994495;28;20030;-48
2021/12/19 01:17:55;;;;;;;59.13;17.58;;;;;;;5.27;100.00;103630.31;4994392;28;20032;-46
2021/12/19 01:20:25;;;;;;;43.97;14.85;;;;;;;5.29;100.00;103633.00;4994484;28;20473;-46
2021/12/19 01:22:52;;;;;;;44.47;14.93;;;;;;;5.26;100.00;103631.09;4994563;28;20030;-50
2021/12/19 01:25:18;;;;;;;54.25;15.85;;;;;;;5.22;100.00;103626.53;4994315;28;20085;-47
2021/12/19 01:27:44;;;;;;;59.35;16.50;;;;;;;5.21;100.00;103611.81;4994388;28;20461;-47
2021/12/19 01:30:11;;;;;;;64.45;15.68;;;;;;;5.20;100.00;103623.00;4994416;28;20098;-49
2021/12/19 01:32:37;;;;;;;43.90;15.77;;;;;;;5.21;100.00;103624.78;4994401;28;20022;-47
2021/12/19 01:35:04;;;;;;;52.28;17.25;;;;;;;5.26;100.00;103628.50;4994290;28;20026;-46
2021/12/19 01:37:30;;;;;;;61.22;19.45;;;;;;;5.27;100.00;103614.75;4994336;28;20402;-47
2021/12/19 01:39:58;;;;;;;55.17;15.35;;;;;;;5.30;100.00;103619.22;4994339;28;20110;-47
2021/12/19 01:42:30;;;;;;;56.60;16.35;;;;;;;5.25;100.00;103624.16;4994288;28;20046;-47
2021/12/19 01:44:56;;;;;;;60.13;18.65;;;;;;;5.23;100.00;103617.97;5010766;28;20026;-47
2021/12/19 01:47:21;;;;;;;79.32;16.70;;;;;;;5.24;100.00;103618.88;5013019;28;20050;-47
2021/12/19 01:49:47;;;;;;;63.13;18.70;;;;;;;5.25;100.00;103624.16;4998020;28;20464;-47
2021/12/19 01:52:12;;;;;;;51.70;16.80;;;;;;;5.24;100.00;103612.00;4998212;28;20084;-47
2021/12/19 01:54:37;;;;;;;69.72;16.80;;;;;;;5.27;100.00;103612.16;4998095;28;20026;-47
2021/12/19 01:57:03;;;;;;;66.63;18.60;;;;;;;5.22;100.00;103621.38;4998043;28;20034;-47
2021/12/19 01:59:28;;;;;;;62.72;18.73;;;;;;;5.18;100.00;103614.22;4997895;28;20109;-47
2021/12/19 02:01:55;;;;;;;83.45;20.60;;;;;;;5.22;100.00;103611.00;4996901;28;20022;-47
2021/12/19 02:04:22;;;;;;;93.20;21.85;;;;;;;5.22;100.00;103616.19;4997912;28;20461;-47
2021/12/19 02:06:47;;;;;;;82.88;20.00;;;;;;;5.22;100.00;103608.41;4997883;28;20105;-48
2021/12/19 02:09:13;;;;;;;66.13;19.27;;;;;;;5.21;100.00;103609.22;4997775;28;20120;-47
2021/12/19 02:11:41;;;;;;;69.25;17.33;;;;;;;5.21;100.00;103604.06;4997889;28;20084;-47
2021/12/19 02:14:07;;;;;;;53.95;16.55;;;;;;;5.20;100.00;103600.56;4997725;28;20105;-49
2021/12/19 02:16:36;;;;;;;63.58;18.33;;;;;;;5.16;100.00;103603.78;4997691;28;20034;-49
2021/12/19 02:19:02;;;;;;;73.15;17.60;;;;;;;5.18;100.00;103596.06;4996144;28;20038;-47
2021/12/19 02:21:28;;;;;;;55.65;18.38;;;;;;;5.19;100.00;103593.59;4998677;28;20018;-46
2021/12/19 02:23:57;;;;;;;71.05;17.98;;;;;;;5.21;100.00;103594.53;4997823;28;20026;-46
2021/12/19 02:26:23;;;;;;;68.65;18.02;;;;;;;5.24;100.00;103591.25;4997784;28;20071;-48
2021/12/19 02:28:48;;;;;;;138.98;22.30;;;;;;;5.20;100.00;103582.41;4997569;28;20115;-47
2021/12/19 02:31:14;;;;;;;104.97;21.77;;;;;;;5.16;100.00;103585.63;4997278;28;20022;-47
2021/12/19 02:33:43;;;;;;;98.80;18.98;;;;;;;5.17;100.00;103586.53;4997319;28;20027;-47
2021/12/19 02:49:32;;;;;;;83.03;18.10;;;;;;;5.12;100.00;103580.19;4997157;28;20464;-46
2021/12/19 02:51:57;;;;;;;80.90;18.08;;;;;;;5.12;100.00;103562.03;4997068;28;20019;-47
2021/12/19 02:54:24;;;;;;;99.43;17.95;;;;;;;5.13;100.00;103550.88;4996832;28;20033;-46
2021/12/19 02:56:51;;;;;;;56.60;17.52;;;;;;;5.19;100.00;103559.00;4996811;28;20124;-46
2021/12/19 02:59:16;;;;;;;143.35;20.52;;;;;;;5.18;100.00;103555.50;4996866;28;20046;-47
2021/12/19 03:01:43;;;;;;;90.78;20.70;;;;;;;5.14;100.00;103550.06;4996966;28;20050;-48
2021/12/19 03:04:09;;;;;;;140.40;22.05;;;;;;;5.10;100.00;103542.91;4996868;28;20074;-47
2021/12/19 03:06:34;;;;;;;80.30;18.73;;;;;;;5.14;100.00;103550.06;4996731;28;20022;-48
2021/12/19 03:09:05;;;;;;;102.03;19.40;;;;;;;5.21;100.00;103552.22;4997032;28;20204;-48
2021/12/19 03:12:01;;;;;;;112.53;20.25;;;;;;;5.18;100.00;103544.25;4996775;28;20026;-47
2021/12/19 03:19:44;;;;;;;155.68;30.25;;;;;;;5.24;100.00;103533.34;4996958;28;20053;-47
2021/12/19 03:22:09;;;;;;;165.23;23.60;;;;;;;5.19;100.00;103525.28;4996528;28;20022;-47
2021/12/19 03:24:35;;;;;;;132.52;22.20;;;;;;;5.19;100.00;103538.25;4996427;28;20026;-47
2021/12/19 03:27:00;;;;;;;104.05;19.13;;;;;;;5.17;100.00;103525.22;4996511;28;20065;-48
2021/12/19 03:29:25;;;;;;;71.30;19.20;;;;;;;5.20;100.00;103516.72;4996502;28;20057;-46
2021/12/19 03:31:51;;;;;;;84.07;20.60;;;;;;;5.21;100.00;103515.94;4996196;28;20113;-49
2021/12/19 03:34:16;;;;;;;132.75;24.65;;;;;;;5.13;100.00;103506.81;4982464;28;20374;-47
2021/12/19 03:36:41;;;;;;;135.32;27.70;;;;;;;5.14;100.00;103509.47;4975764;28;20026;-46
2021/12/19 03:39:14;;;;;;;170.20;25.27;;;;;;;5.12;100.00;103515.41;4976783;28;20110;-46
2021/12/19 03:41:41;;;;;;;188.02;27.10;;;;;;;5.07;100.00;103509.06;4976703;28;20030;-47
2021/12/19 03:44:07;;;;;;;85.07;22.63;;;;;;;5.06;100.00;103515.03;4976691;28;20026;-47
2021/12/19 03:46:32;;;;;;;56.47;18.17;;;;;;;5.03;100.00;103510.59;4976706;28;20031;-46
2021/12/19 03:48:58;;;;;;;15.75;8.65;;;;;;;5.01;100.00;103506.13;4976555;28;20030;-47
2021/12/19 03:51:24;;;;;;;29.60;12.52;;;;;;;4.98;100.00;103505.94;4976329;28;20046;-48
2021/12/19 03:53:49;;;;;;;20.42;8.70;;;;;;;4.96;100.00;103489.44;4976282;28;20062;-47
2021/12/19 03:56:15;;;;;;;24.10;12.20;;;;;;;4.96;100.00;103502.38;4976539;28;20173;-46
2021/12/19 03:58:40;;;;;;;24.90;12.82;;;;;;;4.98;100.00;103495.56;4976387;28;20060;-47
2021/12/19 04:01:08;;;;;;;25.13;13.23;;;;;;;4.93;100.00;103491.84;4976300;28;20054;-47
2021/12/19 04:03:34;;;;;;;31.63;14.77;;;;;;;4.95;100.00;103491.13;4976282;28;20410;-50
2021/12/19 04:05:59;;;;;;;30.63;14.65;;;;;;;4.93;100.00;103481.50;4976224;28;20077;-48
2021/12/19 04:08:25;;;;;;;29.48;15.00;;;;;;;4.94;100.00;103478.06;4975604;28;20032;-47
2021/12/19 04:10:52;;;;;;;27.70;13.55;;;;;;;4.90;100.00;103477.00;4976185;28;20019;-47
2021/12/19 04:13:18;;;;;;;30.50;14.20;;;;;;;4.93;100.00;103471.13;4976178;28;20027;-48
2021/12/19 04:15:43;;;;;;;32.97;17.25;;;;;;;4.96;100.00;103471.28;4976102;28;20499;-47
2021/12/19 04:18:09;;;;;;;37.50;15.95;;;;;;;4.99;100.00;103471.47;4976109;28;20054;-47
2021/12/19 04:20:34;;;;;;;38.17;17.17;;;;;;;5.00;100.00;103463.78;4975999;28;20049;-47
2021/12/19 04:23:00;;;;;;;29.58;15.90;;;;;;;4.93;100.00;103466.84;4975897;28;20015;-47
2021/12/19 04:25:25;;;;;;;30.98;13.75;;;;;;;4.94;100.00;103457.34;4975903;28;20492;-47
2021/12/19 04:27:51;;;;;;;34.60;15.75;;;;;;;4.92;100.00;103443.44;4976086;28;20552;-47
2021/12/19 04:30:21;;;;;;;32.67;13.45;;;;;;;4.92;100.00;103449.50;4975949;28;20037;-47
2021/12/19 04:32:56;;;;;;;39.03;12.18;;;;;;;4.91;100.00;103441.63;4976011;28;20086;-47
2021/12/19 04:35:21;;;;;;;41.45;12.38;;;;;;;4.85;100.00;103443.91;4975705;28;20470;-50
2021/12/19 04:51:58;;;;;;;;;;;;;;;;;;;;;
2021/12/19 04:54:34;;;;;;;104.15;17.45;;;;;;;4.90;100.00;103438.16;4994831;28;20034;-47
2021/12/19 04:59:50;;;;;;;;;;;;;;;;;;;;;
2021/12/19 05:02:49;;;;;;;43.97;11.18;;;;;;;4.87;100.00;103439.69;4994849;28;20078;-47
2021/12/19 05:15:29;;;;;;;52.00;11.57;;;;;;;5.00;100.00;103439.56;4996409;28;20042;-47
2021/12/19 05:18:00;;;;;;;36.30;10.02;;;;;;;4.97;100.00;103429.03;4994652;28;20027;-46
2021/12/19 05:20:28;;;;;;;39.60;11.50;;;;;;;5.03;100.00;103422.50;4994646;28;20032;-47
2021/12/19 05:22:59;;;;;;;41.17;12.00;;;;;;;5.06;100.00;103426.94;4994533;28;20030;-47
2021/12/19 05:25:25;;;;;;;39.90;11.95;;;;;;;5.10;100.00;103423.72;4994507;28;20030;-47
2021/12/19 05:27:56;;;;;;;45.17;11.20;;;;;;;5.07;100.00;103418.38;4994539;28;20034;-47
2021/12/19 05:30:23;;;;;;;41.38;10.95;;;;;;;5.09;100.00;103421.94;4994377;28;20033;-47
2021/12/19 05:32:51;;;;;;;62.58;12.25;;;;;;;5.15;100.00;103417.09;4994491;28;20031;-47
2021/12/19 05:35:25;;;;;;;49.20;11.02;;;;;;;5.15;100.00;103422.25;4994275;28;20038;-47
2021/12/19 05:46:03;;;;;;;59.92;12.27;;;;;;;5.19;100.00;103419.03;4994762;28;20058;-46
2021/12/19 05:48:28;;;;;;;34.22;10.77;;;;;;;5.18;100.00;103415.53;4994154;28;20187;-47
2021/12/19 05:50:54;;;;;;;81.50;14.27;;;;;;;5.22;100.00;103408.81;4994282;28;20098;-46
2021/12/19 05:53:19;;;;;;;64.35;12.45;;;;;;;5.20;100.00;103413.06;4994207;28;20037;-47
2021/12/19 05:55:44;;;;;;;102.10;15.15;;;;;;;5.25;100.00;103418.50;4994197;28;20549;-47
2021/12/19 05:58:10;;;;;;;79.60;13.38;;;;;;;5.23;100.00;103389.88;4994175;28;20101;-47
2021/12/19 06:00:35;;;;;;;39.55;11.65;;;;;;;5.29;100.00;103400.59;4994270;28;20026;-49
2021/12/19 06:03:02;;;;;;;70.80;12.65;;;;;;;5.32;100.00;103405.94;4994203;28;20106;-47
2021/12/19 06:05:28;;;;;;;50.70;11.35;;;;;;;5.31;100.00;103398.97;4994201;28;20053;-47
2021/12/19 06:07:53;;;;;;;40.35;10.90;;;;;;;5.35;100.00;103400.91;4994067;28;20121;-48
2021/12/19 06:10:20;;;;;;;35.78;9.50;;;;;;;5.37;100.00;103406.19;4994113;28;20030;-48
2021/12/19 06:12:45;;;;;;;23.77;8.02;;;;;;;5.38;100.00;103394.97;4994082;28;20498;-47
2021/12/19 06:15:11;;;;;;;30.27;9.13;;;;;;;5.39;100.00;103399.38;4993916;28;20022;-47
2021/12/19 06:17:40;;;;;;;36.17;9.70;;;;;;;5.41;100.00;103400.34;4993886;28;20023;-47
2021/12/19 06:20:06;;;;;;;30.35;8.80;;;;;;;5.46;100.00;103404.94;4993917;28;20054;-49
2021/12/19 06:22:32;;;;;;;25.58;7.85;;;;;;;5.47;100.00;103395.47;4994111;28;20030;-50
2021/12/19 06:24:57;;;;;;;27.10;7.47;;;;;;;5.45;100.00;103390.22;4993967;28;20484;-48
2021/12/19 06:27:22;;;;;;;35.33;8.38;;;;;;;5.50;100.00;103390.44;4992806;28;20481;-48
2021/12/19 06:29:49;;;;;;;22.17;6.85;;;;;;;5.51;100.00;103393.13;4993968;28;20077;-50
2021/12/19 06:32:15;;;;;;;30.88;7.38;;;;;;;5.54;100.00;103382.91;4997245;28;20030;-49
2021/12/19 06:34:41;;;;;;;35.72;8.15;;;;;;;5.52;100.00;103391.44;4997230;28;20029;-48
2021/12/19 06:37:09;;;;;;;44.50;9.55;;;;;;;5.52;100.00;103381.06;4997273;28;20023;-48
2021/12/19 06:39:36;;;;;;;36.35;10.20;;;;;;;5.52;100.00;103389.75;4997390;28;20105;-48
2021/12/19 06:42:02;;;;;;;44.97;13.15;;;;;;;5.53;100.00;103388.91;4997317;28;20034;-47
2021/12/19 06:44:27;;;;;;;52.63;10.77;;;;;;;5.55;100.00;103383.81;4997277;28;20434;-48
2021/12/19 06:46:53;;;;;;;34.90;8.77;;;;;;;5.57;100.00;103372.69;4997195;28;20030;-49
2021/12/19 06:49:18;;;;;;;34.05;9.00;;;;;;;5.59;100.00;103371.09;4997004;28;20565;-49
2021/12/19 06:51:43;;;;;;;48.72;8.35;;;;;;;5.61;100.00;103366.84;4997219;28;20026;-49
2021/12/19 06:54:09;;;;;;;46.42;8.13;;;;;;;5.56;100.00;103370.03;4995344;28;20049;-48
2021/12/19 06:56:35;;;;;;;59.10;8.68;;;;;;;5.55;100.00;103369.16;4997058;28;20026;-48
2021/12/19 06:59:00;;;;;;;41.53;7.88;;;;;;;5.58;100.00;103351.16;4997098;28;20077;-47
2021/12/19 07:01:26;;;;;;;31.45;7.82;;;;;;;5.58;100.00;103348.56;4996961;28;20042;-47
2021/12/19 07:03:51;;;;;;;50.42;10.15;;;;;;;5.66;100.00;103365.41;4997043;28;20101;-49
2021/12/19 07:06:17;;;;;;;43.60;9.90;;;;;;;5.64;100.00;103364.44;4996751;28;20026;-47
2021/12/19 07:08:42;;;;;;;31.55;10.02;;;;;;;5.68;100.00;103360.31;4996802;28;20111;-47
2021/12/19 07:11:07;;;;;;;57.10;12.77;;;;;;;5.63;100.00;103347.09;4996657;28;20037;-47
2021/12/19 07:13:33;;;;;;;68.18;11.40;;;;;;;5.67;100.00;103350.72;4995553;28;20027;-47
2021/12/19 07:15:59;;;;;;;31.92;10.77;;;;;;;5.67;100.00;103349.03;4998115;28;20033;-47
2021/12/19 07:18:24;;;;;;;37.47;8.80;;;;;;;5.73;100.00;103347.56;4996928;28;20037;-47
2021/12/19 07:20:49;;;;;;;40.78;8.65;;;;;;;5.67;100.00;103349.03;4996703;28;20420;-47
2021/12/19 07:23:20;;;;;;;35.25;8.93;;;;;;;5.72;100.00;103346.69;4996702;28;20092;-47
2021/12/19 07:25:46;;;;;;;29.42;8.57;;;;;;;5.76;100.00;103347.72;4996790;28;20049;-47
2021/12/19 07:28:12;;;;;;;54.28;9.20;;;;;;;5.77;100.00;103344.31;4996374;28;20037;-48
2021/12/19 07:30:39;;;;;;;42.60;8.15;;;;;;;5.74;100.00;103344.13;4995204;28;20033;-48
2021/12/19 07:33:06;;;;;;;54.83;9.15;;;;;;;5.68;100.00;103334.38;4996390;28;20066;-47
2021/12/19 07:35:35;;;;;;;48.67;8.48;;;;;;;5.71;100.00;103344.00;4995088;28;20065;-48
2021/12/19 07:38:02;;;;;;;31.70;8.15;;;;;;;5.74;100.00;103349.31;4996430;28;20117;-48
2021/12/19 07:40:35;;;;;;;41.15;8.48;;;;;;;5.71;100.00;103349.19;4996219;28;20018;-48
2021/12/19 07:43:03;;;;;;;29.10;7.45;;;;;;;5.71;100.00;103354.38;4995167;28;20062;-48
2021/12/19 07:45:28;;;;;;;33.60;7.65;;;;;;;5.69;100.00;103342.19;4996185;28;20157;-49
2021/12/19 07:47:54;;;;;;;33.97;11.27;;;;;;;5.71;100.00;103347.47;4995979;28;20121;-47
2021/12/19 07:50:20;;;;;;;42.45;10.48;;;;;;;5.76;100.00;103342.53;4995879;28;20049;-48
2021/12/19 07:52:45;;;;;;;30.40;10.88;;;;;;;5.75;100.00;103335.56;4996054;28;20026;-49
2021/12/19 07:55:11;;;;;;;41.20;13.63;;;;;;;5.81;100.00;103335.88;4995915;28;20039;-48
2021/12/19 07:57:36;;;;;;;39.15;13.32;;;;;;;5.87;100.00;103333.63;4996047;28;20024;-50
2021/12/19 08:00:07;;;;;;;32.95;11.73;;;;;;;5.85;100.00;103322.25;4995868;28;20031;-48
2021/12/19 08:02:33;;;;;;;39.92;13.13;;;;;;;5.84;100.00;103320.47;4995855;28;20117;-48
2021/12/19 08:04:58;;;;;;;42.60;12.82;;;;;;;5.81;100.00;103328.09;4995692;28;20046;-48
2021/12/19 08:07:24;;;;;;;34.22;13.43;;;;;;;5.84;100.00;103326.53;4995778;28;20481;-48
2021/12/19 08:12:34;;;;;;;37.70;13.02;;;;;;;5.88;100.00;103320.72;4995683;28;20113;-51
2021/12/19 08:14:59;;;;;;;41.45;13.18;;;;;;;5.92;100.00;103326.97;4995444;28;20544;-48
2021/12/19 08:17:25;;;;;;;43.58;14.73;;;;;;;5.94;100.00;103320.13;4995438;28;20057;-49
2021/12/19 08:19:50;;;;;;;45.83;15.05;;;;;;;5.92;100.00;103324.38;4994267;28;20034;-49
2021/12/19 08:22:16;;;;;;;41.15;17.08;;;;;;;6.00;100.00;103317.84;4992172;28;20097;-49
2021/12/19 08:24:43;;;;;;;49.95;18.73;;;;;;;6.07;100.00;103330.31;4995348;28;20018;-47
2021/12/19 08:27:09;;;;;;;63.92;23.08;;;;;;;6.07;100.00;103326.00;4995299;28;20034;-48
2021/12/19 08:29:34;;;;;;;62.80;21.92;;;;;;;6.08;100.00;103326.91;4995257;28;20049;-47
2021/12/19 08:32:00;;;;;;;68.68;21.83;;;;;;;6.11;100.00;103327.06;4995299;28;20461;-47
2021/12/19 08:34:25;;;;;;;48.15;20.25;;;;;;;6.16;100.00;103327.28;4995099;28;20022;-48
2021/12/19 08:36:50;;;;;;;55.22;21.58;;;;;;;6.20;100.00;103322.31;4995180;28;20069;-47
2021/12/19 08:39:16;;;;;;;46.85;21.58;;;;;;;6.18;100.00;103318.75;4995089;28;20030;-49
2021/12/19 08:41:42;;;;;;;45.25;20.95;;;;;;;6.18;100.00;103323.94;4995212;28;20026;-48
2021/12/19 08:44:08;;;;;;;46.80;20.65;;;;;;;6.23;100.00;103331.94;4995132;28;20033;-48
2021/12/19 08:46:35;;;;;;;46.08;21.10;;;;;;;6.21;100.00;103324.06;4995016;28;20058;-48
2021/12/19 08:49:03;;;;;;;47.92;23.08;;;;;;;6.26;100.00;103322.59;4994782;28;20046;-48
2021/12/19 08:51:28;;;;;;;59.60;24.95;;;;;;;6.24;100.00;103328.56;4993715;28;20058;-48
2021/12/19 08:53:54;;;;;;;58.15;24.83;;;;;;;6.31;100.00;103321.13;4994423;28;20061;-49
2021/12/19 08:56:19;;;;;;;63.00;24.83;;;;;;;6.27;100.00;103323.50;4994828;28;20022;-47
2021/12/19 08:58:45;;;;;;;72.82;26.40;;;;;;;6.31;100.00;103326.31;4994872;28;20030;-48
2021/12/19 09:01:10;;;;;;;81.03;28.50;;;;;;;6.30;100.00;103316.75;4994754;28;20091;-48
2021/12/19 09:03:35;;;;;;;88.32;27.17;;;;;;;6.33;100.00;103314.28;4994830;28;20110;-49
2021/12/19 09:06:01;;;;;;;77.10;24.90;;;;;;;6.34;100.00;103316.06;4994764;28;20037;-48
2021/12/19 09:08:27;;;;;;;55.17;22.77;;;;;;;6.34;100.00;103321.28;4994721;28;20041;-49
2021/12/19 09:10:55;;;;;;;54.78;23.13;;;;;;;6.38;100.00;103318.00;4994658;28;20023;-47
2021/12/19 09:13:20;;;;;;;57.25;24.50;;;;;;;6.40;100.00;103324.19;4994658;28;20034;-48
2021/12/19 09:15:46;;;;;;;55.65;24.40;;;;;;;6.38;100.00;103319.72;4994519;28;20148;-48
2021/12/19 09:18:11;;;;;;;47.20;23.83;;;;;;;6.37;100.00;103308.44;4994473;28;20030;-50
2021/12/19 09:20:37;;;;;;;49.42;23.75;;;;;;;6.37;100.00;103311.03;4994594;28;20022;-47
2021/12/19 09:23:03;;;;;;;48.13;24.23;;;;;;;6.40;100.00;103306.00;4994529;28;20030;-48
2021/12/19 09:25:28;;;;;;;48.55;23.38;;;;;;;6.47;100.00;103310.66;4994527;28;20033;-47
2021/12/19 09:27:53;;;;;;;45.92;23.65;;;;;;;6.54;100.00;103304.94;4994634;28;20026;-48
2021/12/19 09:30:19;;;;;;;43.78;22.80;;;;;;;6.53;100.00;103300.53;4994516;28;20441;-49
2021/12/19 09:32:44;;;;;;;41.40;22.35;;;;;;;6.51;100.00;103304.78;4993262;28;20085;-48
2021/12/19 09:35:10;;;;;;;39.75;21.95;;;;;;;6.51;100.00;103303.91;4994288;28;20074;-50
2021/12/19 09:37:36;;;;;;;33.10;18.48;;;;;;;6.49;100.00;103306.41;4994378;28;20034;-47
2021/12/19 09:40:04;;;;;;;35.40;19.20;;;;;;;6.50;100.00;103308.19;4994424;28;20023;-50
2021/12/19 09:42:34;;;;;;;27.85;17.92;;;;;;;6.47;100.00;103289.88;4994467;28;20037;-48
2021/12/19 09:45:01;;;;;;;34.03;19.13;;;;;;;6.54;100.00;103299.75;4994440;28;20121;-49
2021/12/19 09:47:27;;;;;;;34.83;18.55;;;;;;;6.57;100.00;103299.88;4994321;28;20065;-48
2021/12/19 09:49:53;;;;;;;28.50;16.65;;;;;;;6.61;100.00;103307.00;4994036;28;20074;-50
2021/12/19 09:52:18;;;;;;;25.60;15.35;;;;;;;6.63;100.00;103304.47;4994264;28;20436;-47
2021/12/19 09:54:44;;;;;;;25.73;16.15;;;;;;;6.64;100.00;103302.78;4994091;28;20026;-47
2021/12/19 09:57:09;;;;;;;23.05;14.90;;;;;;;6.68;100.00;103302.09;4994323;28;20436;-46
2021/12/19 09:59:34;;;;;;;17.42;11.77;;;;;;;6.70;100.00;103295.25;4994196;28;20438;-47
2021/12/19 10:02:00;;;;;;;16.00;10.43;;;;;;;6.67;100.00;103297.72;4994282;28;20042;-47
2021/12/19 10:04:33;;;;;;;19.13;10.55;;;;;;;6.69;100.00;103298.69;4993810;28;20030;-46
2021/12/19 10:07:18;;;;;;;13.05;9.15;;;;;;;6.77;100.00;103302.53;4997527;28;20041;-47
2021/12/19 10:10:10;;;;;;;15.40;9.93;;;;;;;6.77;100.00;103297.34;4999533;28;20025;-47
2021/12/19 10:12:48;;;;;;;11.70;8.55;;;;;;;6.78;100.00;103299.09;4998090;28;20050;-47
2021/12/19 10:15:19;;;;;;;11.45;8.38;;;;;;;6.83;100.00;103292.41;4997762;28;20026;-47
2021/12/19 10:17:46;;;;;;;13.48;9.68;;;;;;;6.82;100.00;103280.22;4998030;28;20046;-47
2021/12/19 10:20:14;;;;;;;15.32;9.40;;;;;;;6.87;100.00;103283.94;4997781;28;20109;-46
2021/12/19 10:22:43;;;;;;;10.60;7.75;;;;;;;6.90;100.00;103284.06;4997794;28;20033;-46
2021/12/19 10:25:20;;;;;;;10.55;7.47;;;;;;;6.91;100.00;103280.66;4997702;28;20022;-47
2021/12/19 10:27:47;;;;;;;13.05;7.75;;;;;;;6.94;100.00;103280.78;4997621;28;20042;-46
2021/12/19 10:30:22;;;;;;;8.63;7.35;;;;;;;6.84;100.00;103270.81;4997507;28;20397;-47
2021/12/19 10:33:03;;;;;;;11.52;7.97;;;;;;;6.80;100.00;103261.09;4996441;28;20157;-46
2021/12/19 10:35:35;;;;;;;13.52;7.82;;;;;;;6.77;100.00;103255.75;4997421;28;20033;-49
2021/12/19 10:38:03;;;;;;;12.15;7.97;;;;;;;6.81;100.00;103262.84;4997487;28;20022;-48
2021/12/19 10:40:29;;;;;;;12.35;8.18;;;;;;;6.76;100.00;103254.88;4997431;28;20370;-49
2021/12/19 10:43:00;;;;;;;10.90;8.07;;;;;;;6.80;100.00;103248.09;4997234;28;20031;-49
2021/12/19 10:45:32;;;;;;;12.23;7.70;;;;;;;6.90;100.00;103252.88;4997398;28;20022;-47
2021/12/19 10:48:22;;;;;;;12.10;7.82;;;;;;;6.92;100.00;103251.25;4997293;28;20030;-50
2021/12/19 10:50:58;;;;;;;11.90;8.32;;;;;;;6.91;100.00;103239.06;4958499;28;20042;-49
2021/12/19 10:53:27;;;;;;;12.15;7.68;;;;;;;6.97;100.00;103239.31;4958315;28;20541;-49
2021/12/19 10:55:53;;;;;;;9.73;7.45;;;;;;;6.96;100.00;103232.38;4958345;28;20024;-48
2021/12/19 10:58:43;;;;;;;14.98;8.45;;;;;;;6.97;100.00;103234.13;4958266;28;20030;-47
2021/12/19 11:01:17;;;;;;;12.40;8.37;;;;;;;7.03;100.00;103239.63;4958294;28;20039;-47
2021/12/19 11:03:43;;;;;;;13.65;8.85;;;;;;;6.98;100.00;103233.31;4958330;28;20734;-47
2021/12/19 11:06:27;;;;;;;13.02;8.35;;;;;;;6.98;100.00;103238.50;4958117;28;20059;-47
2021/12/19 11:08:54;;;;;;;12.23;8.60;;;;;;;7.04;100.00;103225.81;4958125;28;20031;-47
2021/12/19 11:11:46;;;;;;;12.98;9.23;;;;;;;7.03;100.00;103216.22;4958185;28;20162;-46
2021/12/19 11:14:15;;;;;;;13.85;9.00;;;;;;;7.05;100.00;103206.75;4957902;28;20485;-47
2021/12/19 11:16:41;;;;;;;16.63;10.13;;;;;;;7.05;100.00;103204.16;4957802;28;20031;-47
2021/12/19 11:19:06;;;;;;;17.27;10.48;;;;;;;7.07;100.00;103205.13;4957923;28;20179;-47
2021/12/19 11:21:36;;;;;;;24.52;10.15;;;;;;;7.11;100.00;103199.25;4957938;28;20051;-47
2021/12/19 11:24:08;;;;;;;9.18;7.65;;;;;;;6.94;100.00;103197.63;4957802;28;20027;-47
2021/12/19 11:26:35;;;;;;;10.43;7.70;;;;;;;7.00;100.00;103200.50;4957872;28;20034;-47
2021/12/19 11:29:01;;;;;;;13.43;8.05;;;;;;;6.98;100.00;103189.13;4957806;28;20035;-49
2021/12/19 11:31:31;;;;;;;11.95;8.65;;;;;;;6.99;100.00;103186.63;4957670;28;20034;-48
2021/12/19 11:34:24;;;;;;;12.63;8.98;;;;;;;6.98;100.00;103189.13;4957597;28;20031;-47
2021/12/19 11:36:55;;;;;;;12.75;9.70;;;;;;;6.99;100.00;103185.72;4956528;28;20019;-47
2021/12/19 11:39:26;;;;;;;17.23;10.25;;;;;;;6.97;100.00;103179.53;4957690;28;20042;-47
2021/12/19 11:42:31;;;;;;;15.32;10.02;;;;;;;7.02;100.00;103170.25;4957675;28;20024;-47
2021/12/19 11:47:42;;;;;;;13.38;10.18;;;;;;;6.99;100.00;103164.94;4954085;28;20039;-49
2021/12/19 11:50:23;;;;;;;13.65;9.00;;;;;;;7.00;100.00;103162.41;4987869;28;20421;-47
2021/12/19 11:52:50;;;;;;;13.85;8.27;;;;;;;7.01;100.00;103158.06;4996190;28;20441;-47
2021/12/19 11:55:22;;;;;;;9.45;6.93;;;;;;;6.98;100.00;103158.84;4995961;28;20101;-47
2021/12/19 11:58:08;;;;;;;11.02;7.32;;;;;;;7.01;100.00;103147.66;4995977;28;20076;-47
2021/12/19 12:00:47;;;;;;;9.27;7.43;;;;;;;7.03;100.00;103152.13;4995905;28;20085;-47
2021/12/19 12:03:12;;;;;;;10.73;7.63;;;;;;;7.04;100.00;103137.44;4995806;28;20026;-48
2021/12/19 12:05:41;;;;;;;12.82;9.50;;;;;;;7.00;100.00;103145.91;4995747;28;20018;-47
2021/12/19 12:08:07;;;;;;;12.60;10.05;;;;;;;7.00;100.00;103138.13;4995730;28;20034;-47
2021/12/19 12:10:55;;;;;;;13.63;10.13;;;;;;;6.98;100.00;103137.16;4996346;28;20026;-48
2021/12/19 12:13:25;;;;;;;13.15;9.18;;;;;;;6.94;100.00;103141.34;4995804;28;20100;-47
2021/12/19 12:15:54;;;;;;;10.52;7.72;;;;;;;6.93;100.00;103117.88;4996315;28;20046;-47
2021/12/19 12:18:34;;;;;;;13.05;8.35;;;;;;;6.84;100.00;103114.91;4995605;28;20062;-47
2021/12/19 12:21:17;;;;;;;10.32;7.40;;;;;;;6.96;100.00;103128.41;4995589;28;20088;-46
2021/12/19 12:23:55;;;;;;;5.85;5.22;;;;;;;6.93;100.00;103123.06;4995399;28;20065;-47
2021/12/19 12:26:49;;;;;;;5.32;3.80;;;;;;;6.90;100.00;103129.03;4995322;28;20030;-46